sensor_id;sensor_type;location;lat;lon;timestamp;P1;durP1;ratioP1;P2;durP2;ratioP2
19187;SDS011;9726;52.198;8.792;2024-03-23T00:56:01;64.00;;;18.67;;
19187;SDS011;9726;52.198;8.792;2024-03-23T00:58:28;59.60;;;16.27;;
19187;SDS011;9726;52.198;8.792;2024-03-23T01:00:55;56.50;;;16.03;;
19187;SDS011;9726;52.198;8.792;2024-03-23T01:03:21;56.40;;;17.30;;
19187;SDS011;9726;52.198;8.792;2024-03-23T01:05:47;65.30;;;15.67;;
19187;SDS011;9726;52.198;8.792;2024-03-23T01:08:14;61.03;;;15.37;;
19187;SDS011;9726;52.198;8.792;2024-03-23T01:10:40;47.50;;;15.03;;
19187;SDS011;9726;52.198;8.792;2024-03-23T01:13:07;55.83;;;14.97;;
19187;SDS011;9726;52.198;8.792;2024-03-23T01:15:33;47.80;;;14.90;;
19187;SDS011;9726;52.198;8.792;2024-03-23T01:17:59;56.90;;;13.70;;
19187;SDS011;9726;52.198;8.792;2024-03-23T01:20:25;45.83;;;12.53;;
19187;SDS011;9726;52.198;8.792;2024-03-23T01:22:53;47.17;;;13.87;;
19187;SDS011;9726;52.198;8.792;2024-03-23T01:25:19;50.47;;;13.47;;
19187;SDS011;9726;52.198;8.792;2024-03-23T01:27:45;54.50;;;12.80;;
19187;SDS011;9726;52.198;8.792;2024-03-23T01:30:11;48.17;;;13.73;;
19187;SDS011;9726;52.198;8.792;2024-03-23T01:32:39;50.03;;;12.47;;
19187;SDS011;9726;52.198;8.792;2024-03-23T01:37:57;51.23;;;12.37;;
19187;SDS011;9726;52.198;8.792;2024-03-23T01:40:23;52.17;;;13.93;;
19187;SDS011;9726;52.198;8.792;2024-03-23T01:42:58;47.37;;;12.40;;
19187;SDS011;9726;52.198;8.792;2024-03-23T01:45:30;59.50;;;14.33;;
19187;SDS011;9726;52.198;8.792;2024-03-23T01:47:56;70.23;;;14.03;;
19187;SDS011;9726;52.198;8.792;2024-03-23T01:50:23;56.07;;;14.60;;
19187;SDS011;9726;52.198;8.792;2024-03-23T01:52:50;59.90;;;15.33;;
19187;SDS011;9726;52.198;8.792;2024-03-23T01:55:17;69.50;;;13.93;;
19187;SDS011;9726;52.198;8.792;2024-03-23T01:57:43;45.37;;;13.07;;
19187;SDS011;9726;52.198;8.792;2024-03-23T02:00:09;62.70;;;15.03;;
19187;SDS011;9726;52.198;8.792;2024-03-23T02:02:44;55.77;;;14.30;;
19187;SDS011;9726;52.198;8.792;2024-03-23T02:05:11;46.37;;;14.90;;
19187;SDS011;9726;52.198;8.792;2024-03-23T02:07:38;45.30;;;14.10;;
19187;SDS011;9726;52.198;8.792;2024-03-23T02:10:08;63.70;;;14.60;;
19187;SDS011;9726;52.198;8.792;2024-03-23T02:12:36;46.97;;;13.40;;
19187;SDS011;9726;52.198;8.792;2024-03-23T02:15:03;46.60;;;14.53;;
19187;SDS011;9726;52.198;8.792;2024-03-23T02:17:31;50.00;;;12.27;;
19187;SDS011;9726;52.198;8.792;2024-03-23T02:19:59;59.60;;;14.20;;
19187;SDS011;9726;52.198;8.792;2024-03-23T02:22:25;43.63;;;12.67;;
19187;SDS011;9726;52.198;8.792;2024-03-23T02:25:03;60.23;;;14.90;;
19187;SDS011;9726;52.198;8.792;2024-03-23T02:27:31;40.23;;;12.87;;
19187;SDS011;9726;52.198;8.792;2024-03-23T02:29:58;43.10;;;12.47;;
19187;SDS011;9726;52.198;8.792;2024-03-23T02:32:25;43.57;;;11.13;;
19187;SDS011;9726;52.198;8.792;2024-03-23T02:34:51;47.33;;;12.43;;
19187;SDS011;9726;52.198;8.792;2024-03-23T02:37:17;54.87;;;12.33;;
19187;SDS011;9726;52.198;8.792;2024-03-23T02:39:43;30.63;;;9.77;;
19187;SDS011;9726;52.198;8.792;2024-03-23T02:42:09;36.37;;;9.80;;
19187;SDS011;9726;52.198;8.792;2024-03-23T02:44:36;38.70;;;10.23;;
19187;SDS011;9726;52.198;8.792;2024-03-23T02:47:02;32.93;;;10.33;;
19187;SDS011;9726;52.198;8.792;2024-03-23T02:49:28;36.50;;;9.23;;
19187;SDS011;9726;52.198;8.792;2024-03-23T02:51:54;39.27;;;9.87;;
19187;SDS011;9726;52.198;8.792;2024-03-23T02:54:20;46.70;;;9.73;;
19187;SDS011;9726;52.198;8.792;2024-03-23T02:56:46;44.93;;;9.53;;
19187;SDS011;9726;52.198;8.792;2024-03-23T02:59:12;32.43;;;8.13;;
19187;SDS011;9726;52.198;8.792;2024-03-23T03:01:39;29.80;;;8.93;;
19187;SDS011;9726;52.198;8.792;2024-03-23T03:04:05;24.77;;;7.43;;
19187;SDS011;9726;52.198;8.792;2024-03-23T03:06:31;38.10;;;8.50;;
19187;SDS011;9726;52.198;8.792;2024-03-23T03:08:57;25.40;;;7.60;;
19187;SDS011;9726;52.198;8.792;2024-03-23T03:11:23;33.53;;;7.20;;
19187;SDS011;9726;52.198;8.792;2024-03-23T03:13:49;29.53;;;7.90;;
19187;SDS011;9726;52.198;8.792;2024-03-23T03:16:16;26.63;;;9.30;;
19187;SDS011;9726;52.198;8.792;2024-03-23T03:18:42;33.40;;;7.60;;
19187;SDS011;9726;52.198;8.792;2024-03-23T03:21:10;28.00;;;7.03;;
19187;SDS011;9726;52.198;8.792;2024-03-23T03:23:38;23.30;;;6.57;;
19187;SDS011;9726;52.198;8.792;2024-03-23T03:26:05;18.73;;;6.03;;
19187;SDS011;9726;52.198;8.792;2024-03-23T03:28:32;36.33;;;7.90;;
19187;SDS011;9726;52.198;8.792;2024-03-23T03:31:00;31.10;;;6.97;;
19187;SDS011;9726;52.198;8.792;2024-03-23T03:33:29;28.30;;;6.30;;
19187;SDS011;9726;52.198;8.792;2024-03-23T03:35:55;20.37;;;5.83;;
19187;SDS011;9726;52.198;8.792;2024-03-23T03:38:21;38.23;;;6.00;;
19187;SDS011;9726;52.198;8.792;2024-03-23T03:40:47;18.07;;;6.20;;
19187;SDS011;9726;52.198;8.792;2024-03-23T03:43:14;23.97;;;6.23;;
19187;SDS011;9726;52.198;8.792;2024-03-23T03:45:40;26.17;;;5.87;;
19187;SDS011;9726;52.198;8.792;2024-03-23T03:48:06;20.67;;;5.70;;
19187;SDS011;9726;52.198;8.792;2024-03-23T03:50:32;33.27;;;6.77;;
19187;SDS011;9726;52.198;8.792;2024-03-23T03:52:59;26.47;;;6.53;;
19187;SDS011;9726;52.198;8.792;2024-03-23T03:55:25;27.80;;;6.07;;
19187;SDS011;9726;52.198;8.792;2024-03-23T03:57:51;29.07;;;6.43;;
19187;SDS011;9726;52.198;8.792;2024-03-23T04:00:17;27.73;;;6.73;;
19187;SDS011;9726;52.198;8.792;2024-03-23T04:02:43;27.73;;;6.47;;
19187;SDS011;9726;52.198;8.792;2024-03-23T04:05:10;27.40;;;6.83;;
19187;SDS011;9726;52.198;8.792;2024-03-23T04:07:36;21.20;;;6.37;;
19187;SDS011;9726;52.198;8.792;2024-03-23T04:10:02;25.13;;;6.77;;
19187;SDS011;9726;52.198;8.792;2024-03-23T04:12:32;32.03;;;7.60;;
19187;SDS011;9726;52.198;8.792;2024-03-23T04:14:59;33.23;;;8.23;;
19187;SDS011;9726;52.198;8.792;2024-03-23T04:17:26;23.63;;;7.90;;
19187;SDS011;9726;52.198;8.792;2024-03-23T04:19:57;45.20;;;8.20;;
19187;SDS011;9726;52.198;8.792;2024-03-23T04:22:24;20.43;;;7.13;;
19187;SDS011;9726;52.198;8.792;2024-03-23T04:24:55;26.67;;;7.30;;
19187;SDS011;9726;52.198;8.792;2024-03-23T04:27:21;25.93;;;7.17;;
19187;SDS011;9726;52.198;8.792;2024-03-23T04:29:49;32.20;;;8.17;;
19187;SDS011;9726;52.198;8.792;2024-03-23T04:32:21;32.43;;;8.97;;
19187;SDS011;9726;52.198;8.792;2024-03-23T04:34:47;29.00;;;8.43;;
19187;SDS011;9726;52.198;8.792;2024-03-23T04:37:13;33.13;;;8.50;;
19187;SDS011;9726;52.198;8.792;2024-03-23T04:39:39;41.33;;;8.83;;
19187;SDS011;9726;52.198;8.792;2024-03-23T04:42:07;43.80;;;11.03;;
19187;SDS011;9726;52.198;8.792;2024-03-23T04:44:33;28.60;;;8.70;;
19187;SDS011;9726;52.198;8.792;2024-03-23T04:47:00;28.70;;;8.83;;
19187;SDS011;9726;52.198;8.792;2024-03-23T04:49:26;38.07;;;11.37;;
19187;SDS011;9726;52.198;8.792;2024-03-23T04:51:52;39.43;;;10.00;;
19187;SDS011;9726;52.198;8.792;2024-03-23T04:54:18;40.00;;;9.97;;
19187;SDS011;9726;52.198;8.792;2024-03-23T04:56:48;34.90;;;9.73;;
19187;SDS011;9726;52.198;8.792;2024-03-23T04:59:14;42.07;;;11.47;;
19187;SDS011;9726;52.198;8.792;2024-03-23T05:01:40;38.83;;;9.30;;
19187;SDS011;9726;52.198;8.792;2024-03-23T05:04:08;38.07;;;10.40;;
19187;SDS011;9726;52.198;8.792;2024-03-23T05:06:35;43.00;;;11.10;;
19187;SDS011;9726;52.198;8.792;2024-03-23T05:09:01;38.43;;;10.17;;
19187;SDS011;9726;52.198;8.792;2024-03-23T05:11:32;34.00;;;9.83;;
19187;SDS011;9726;52.198;8.792;2024-03-23T05:13:59;39.63;;;9.43;;
19187;SDS011;9726;52.198;8.792;2024-03-23T05:16:26;36.67;;;10.63;;
19187;SDS011;9726;52.198;8.792;2024-03-23T05:18:52;27.73;;;10.03;;
19187;SDS011;9726;52.198;8.792;2024-03-23T05:21:18;35.93;;;10.97;;
19187;SDS011;9726;52.198;8.792;2024-03-23T05:23:44;49.90;;;12.07;;
19187;SDS011;9726;52.198;8.792;2024-03-23T05:26:11;30.03;;;9.53;;
19187;SDS011;9726;52.198;8.792;2024-03-23T05:28:37;41.20;;;9.73;;
19187;SDS011;9726;52.198;8.792;2024-03-23T05:31:03;39.10;;;10.80;;
19187;SDS011;9726;52.198;8.792;2024-03-23T05:33:29;30.23;;;8.47;;
19187;SDS011;9726;52.198;8.792;2024-03-23T05:36:00;41.57;;;9.63;;
19187;SDS011;9726;52.198;8.792;2024-03-23T05:38:26;27.57;;;9.13;;
19187;SDS011;9726;52.198;8.792;2024-03-23T05:40:57;36.33;;;8.97;;
19187;SDS011;9726;52.198;8.792;2024-03-23T05:43:24;27.67;;;8.90;;
19187;SDS011;9726;52.198;8.792;2024-03-23T05:45:54;30.87;;;8.73;;
19187;SDS011;9726;52.198;8.792;2024-03-23T05:48:27;36.03;;;11.30;;
19187;SDS011;9726;52.198;8.792;2024-03-23T05:50:55;32.97;;;9.10;;
19187;SDS011;9726;52.198;8.792;2024-03-23T05:53:22;41.93;;;8.93;;
19187;SDS011;9726;52.198;8.792;2024-03-23T05:55:49;32.40;;;9.77;;
19187;SDS011;9726;52.198;8.792;2024-03-23T05:58:16;40.80;;;9.83;;
19187;SDS011;9726;52.198;8.792;2024-03-23T06:00:44;28.47;;;11.20;;
19187;SDS011;9726;52.198;8.792;2024-03-23T06:03:10;43.97;;;11.67;;
19187;SDS011;9726;52.198;8.792;2024-03-23T06:05:37;39.67;;;10.17;;
19187;SDS011;9726;52.198;8.792;2024-03-23T06:08:03;39.80;;;12.10;;
19187;SDS011;9726;52.198;8.792;2024-03-23T06:10:30;49.03;;;12.93;;
19187;SDS011;9726;52.198;8.792;2024-03-23T06:12:57;40.07;;;10.63;;
19187;SDS011;9726;52.198;8.792;2024-03-23T06:15:24;35.70;;;12.17;;
19187;SDS011;9726;52.198;8.792;2024-03-23T06:17:51;49.13;;;12.10;;
19187;SDS011;9726;52.198;8.792;2024-03-23T06:20:17;48.03;;;10.93;;
19187;SDS011;9726;52.198;8.792;2024-03-23T06:22:43;46.77;;;11.83;;
19187;SDS011;9726;52.198;8.792;2024-03-23T06:25:09;42.43;;;13.00;;
19187;SDS011;9726;52.198;8.792;2024-03-23T06:27:38;45.70;;;12.37;;
19187;SDS011;9726;52.198;8.792;2024-03-23T06:30:05;32.40;;;12.37;;
19187;SDS011;9726;52.198;8.792;2024-03-23T06:32:32;49.60;;;13.40;;
19187;SDS011;9726;52.198;8.792;2024-03-23T06:34:58;48.33;;;12.73;;
19187;SDS011;9726;52.198;8.792;2024-03-23T06:37:24;47.90;;;12.73;;
19187;SDS011;9726;52.198;8.792;2024-03-23T06:39:51;46.47;;;11.53;;
19187;SDS011;9726;52.198;8.792;2024-03-23T06:42:17;38.97;;;11.47;;
19187;SDS011;9726;52.198;8.792;2024-03-23T06:44:46;51.30;;;11.47;;
19187;SDS011;9726;52.198;8.792;2024-03-23T06:47:12;40.07;;;10.60;;
19187;SDS011;9726;52.198;8.792;2024-03-23T06:49:39;37.70;;;11.87;;
19187;SDS011;9726;52.198;8.792;2024-03-23T06:52:05;39.50;;;11.27;;
19187;SDS011;9726;52.198;8.792;2024-03-23T06:54:31;39.43;;;11.13;;
19187;SDS011;9726;52.198;8.792;2024-03-23T06:56:57;31.20;;;10.33;;
19187;SDS011;9726;52.198;8.792;2024-03-23T06:59:24;50.83;;;10.37;;
19187;SDS011;9726;52.198;8.792;2024-03-23T07:01:50;36.00;;;10.53;;
19187;SDS011;9726;52.198;8.792;2024-03-23T07:04:16;43.10;;;11.03;;
19187;SDS011;9726;52.198;8.792;2024-03-23T07:06:44;35.73;;;10.13;;
19187;SDS011;9726;52.198;8.792;2024-03-23T07:09:11;47.20;;;12.77;;
19187;SDS011;9726;52.198;8.792;2024-03-23T07:11:38;40.13;;;11.67;;
19187;SDS011;9726;52.198;8.792;2024-03-23T07:14:04;45.63;;;11.73;;
19187;SDS011;9726;52.198;8.792;2024-03-23T07:16:30;67.03;;;13.20;;
19187;SDS011;9726;52.198;8.792;2024-03-23T07:18:56;66.60;;;15.37;;
19187;SDS011;9726;52.198;8.792;2024-03-23T07:21:23;41.37;;;11.97;;
19187;SDS011;9726;52.198;8.792;2024-03-23T07:23:49;46.73;;;13.83;;
19187;SDS011;9726;52.198;8.792;2024-03-23T07:26:15;58.97;;;14.23;;
19187;SDS011;9726;52.198;8.792;2024-03-23T07:28:43;51.20;;;15.10;;
19187;SDS011;9726;52.198;8.792;2024-03-23T07:31:11;47.63;;;14.20;;
19187;SDS011;9726;52.198;8.792;2024-03-23T07:33:42;60.07;;;18.53;;
19187;SDS011;9726;52.198;8.792;2024-03-23T07:36:13;63.37;;;15.33;;
19187;SDS011;9726;52.198;8.792;2024-03-23T07:38:42;63.03;;;18.23;;
19187;SDS011;9726;52.198;8.792;2024-03-23T07:41:15;66.77;;;18.40;;
19187;SDS011;9726;52.198;8.792;2024-03-23T07:43:43;49.43;;;17.00;;
19187;SDS011;9726;52.198;8.792;2024-03-23T07:46:10;50.17;;;18.13;;
19187;SDS011;9726;52.198;8.792;2024-03-23T07:48:40;55.20;;;17.50;;
19187;SDS011;9726;52.198;8.792;2024-03-23T07:51:09;53.60;;;17.70;;
19187;SDS011;9726;52.198;8.792;2024-03-23T07:53:37;56.27;;;17.07;;
19187;SDS011;9726;52.198;8.792;2024-03-23T07:58:34;41.57;;;14.83;;
19187;SDS011;9726;52.198;8.792;2024-03-23T08:01:04;54.10;;;13.90;;
19187;SDS011;9726;52.198;8.792;2024-03-23T08:03:38;55.73;;;14.27;;
19187;SDS011;9726;52.198;8.792;2024-03-23T08:08:38;39.90;;;12.43;;
19187;SDS011;9726;52.198;8.792;2024-03-23T08:11:05;39.43;;;12.43;;
19187;SDS011;9726;52.198;8.792;2024-03-23T08:13:31;48.43;;;12.13;;
19187;SDS011;9726;52.198;8.792;2024-03-23T08:15:58;50.83;;;13.67;;
19187;SDS011;9726;52.198;8.792;2024-03-23T08:18:26;45.17;;;14.10;;
19187;SDS011;9726;52.198;8.792;2024-03-23T08:20:56;62.17;;;14.67;;
19187;SDS011;9726;52.198;8.792;2024-03-23T08:23:24;47.07;;;13.10;;
19187;SDS011;9726;52.198;8.792;2024-03-23T08:25:50;50.70;;;13.10;;
19187;SDS011;9726;52.198;8.792;2024-03-23T08:28:17;40.97;;;13.00;;
19187;SDS011;9726;52.198;8.792;2024-03-23T08:30:44;37.60;;;11.47;;
19187;SDS011;9726;52.198;8.792;2024-03-23T08:33:10;31.13;;;10.77;;
19187;SDS011;9726;52.198;8.792;2024-03-23T08:35:36;34.23;;;9.97;;
19187;SDS011;9726;52.198;8.792;2024-03-23T08:38:03;28.23;;;9.83;;
19187;SDS011;9726;52.198;8.792;2024-03-23T08:40:29;31.77;;;9.07;;
19187;SDS011;9726;52.198;8.792;2024-03-23T08:42:55;30.40;;;9.80;;
19187;SDS011;9726;52.198;8.792;2024-03-23T08:45:21;41.67;;;9.67;;
19187;SDS011;9726;52.198;8.792;2024-03-23T08:47:47;29.43;;;7.97;;
19187;SDS011;9726;52.198;8.792;2024-03-23T08:50:14;44.33;;;8.40;;
19187;SDS011;9726;52.198;8.792;2024-03-23T08:52:40;47.30;;;8.57;;
19187;SDS011;9726;52.198;8.792;2024-03-23T08:55:06;31.57;;;7.67;;
19187;SDS011;9726;52.198;8.792;2024-03-23T08:57:33;31.00;;;7.60;;
19187;SDS011;9726;52.198;8.792;2024-03-23T08:59:59;32.30;;;9.10;;
19187;SDS011;9726;52.198;8.792;2024-03-23T09:02:25;41.07;;;8.43;;
19187;SDS011;9726;52.198;8.792;2024-03-23T09:04:51;24.87;;;7.50;;
19187;SDS011;9726;52.198;8.792;2024-03-23T09:07:20;41.50;;;8.13;;
19187;SDS011;9726;52.198;8.792;2024-03-23T09:09:49;25.00;;;6.87;;
19187;SDS011;9726;52.198;8.792;2024-03-23T09:12:16;36.40;;;8.57;;
19187;SDS011;9726;52.198;8.792;2024-03-23T09:14:42;27.70;;;6.17;;
19187;SDS011;9726;52.198;8.792;2024-03-23T09:17:08;23.90;;;6.30;;
19187;SDS011;9726;52.198;8.792;2024-03-23T09:19:35;36.33;;;6.63;;
19187;SDS011;9726;52.198;8.792;2024-03-23T09:22:01;21.43;;;5.97;;
19187;SDS011;9726;52.198;8.792;2024-03-23T09:24:27;29.37;;;6.30;;
19187;SDS011;9726;52.198;8.792;2024-03-23T09:26:53;18.83;;;5.57;;
19187;SDS011;9726;52.198;8.792;2024-03-23T09:29:20;27.43;;;6.27;;
19187;SDS011;9726;52.198;8.792;2024-03-23T09:31:46;29.02;;;7.45;;
19187;SDS011;9726;52.198;8.792;2024-03-23T09:34:14;23.57;;;6.17;;
19187;SDS011;9726;52.198;8.792;2024-03-23T09:36:40;16.47;;;4.67;;
19187;SDS011;9726;52.198;8.792;2024-03-23T09:39:07;26.40;;;6.00;;
19187;SDS011;9726;52.198;8.792;2024-03-23T09:41:36;19.63;;;4.93;;
19187;SDS011;9726;52.198;8.792;2024-03-23T09:44:04;15.60;;;4.30;;
19187;SDS011;9726;52.198;8.792;2024-03-23T09:46:33;18.83;;;4.43;;
19187;SDS011;9726;52.198;8.792;2024-03-23T09:49:03;13.60;;;4.07;;
19187;SDS011;9726;52.198;8.792;2024-03-23T09:51:30;17.70;;;5.00;;
19187;SDS011;9726;52.198;8.792;2024-03-23T09:53:58;21.37;;;5.30;;
19187;SDS011;9726;52.198;8.792;2024-03-23T09:56:24;14.97;;;4.10;;
19187;SDS011;9726;52.198;8.792;2024-03-23T09:58:50;19.37;;;4.03;;
19187;SDS011;9726;52.198;8.792;2024-03-23T10:01:17;15.83;;;3.53;;
19187;SDS011;9726;52.198;8.792;2024-03-23T10:03:45;15.60;;;3.67;;
19187;SDS011;9726;52.198;8.792;2024-03-23T10:06:13;13.23;;;3.70;;
19187;SDS011;9726;52.198;8.792;2024-03-23T10:08:39;23.37;;;5.03;;
19187;SDS011;9726;52.198;8.792;2024-03-23T10:11:24;17.50;;;4.80;;
19187;SDS011;9726;52.198;8.792;2024-03-23T10:13:53;19.87;;;4.37;;
19187;SDS011;9726;52.198;8.792;2024-03-23T10:16:23;22.77;;;4.47;;
19187;SDS011;9726;52.198;8.792;2024-03-23T10:18:49;22.90;;;4.40;;
19187;SDS011;9726;52.198;8.792;2024-03-23T10:21:16;20.63;;;5.30;;
19187;SDS011;9726;52.198;8.792;2024-03-23T10:23:43;17.67;;;3.80;;
19187;SDS011;9726;52.198;8.792;2024-03-23T10:26:17;15.73;;;5.10;;
19187;SDS011;9726;52.198;8.792;2024-03-23T10:28:51;18.60;;;4.33;;
19187;SDS011;9726;52.198;8.792;2024-03-23T10:31:35;17.33;;;4.20;;
19187;SDS011;9726;52.198;8.792;2024-03-23T10:34:02;15.10;;;4.37;;
19187;SDS011;9726;52.198;8.792;2024-03-23T10:36:29;19.03;;;4.33;;
19187;SDS011;9726;52.198;8.792;2024-03-23T10:38:56;17.50;;;3.73;;
19187;SDS011;9726;52.198;8.792;2024-03-23T10:41:28;17.43;;;4.30;;
19187;SDS011;9726;52.198;8.792;2024-03-23T10:43:59;21.40;;;4.17;;
19187;SDS011;9726;52.198;8.792;2024-03-23T10:46:27;18.60;;;3.93;;
19187;SDS011;9726;52.198;8.792;2024-03-23T10:48:54;22.10;;;3.63;;
19187;SDS011;9726;52.198;8.792;2024-03-23T10:51:26;14.63;;;3.37;;
19187;SDS011;9726;52.198;8.792;2024-03-23T10:53:53;17.07;;;3.93;;
19187;SDS011;9726;52.198;8.792;2024-03-23T10:56:24;19.07;;;4.53;;
19187;SDS011;9726;52.198;8.792;2024-03-23T10:58:54;18.93;;;5.20;;
19187;SDS011;9726;52.198;8.792;2024-03-23T11:01:21;23.77;;;4.30;;
19187;SDS011;9726;52.198;8.792;2024-03-23T11:03:48;22.77;;;5.33;;
19187;SDS011;9726;52.198;8.792;2024-03-23T11:06:37;21.93;;;4.73;;
19187;SDS011;9726;52.198;8.792;2024-03-23T11:09:10;16.87;;;4.50;;
19187;SDS011;9726;52.198;8.792;2024-03-23T11:14:48;7.00;;;1.97;;
19187;SDS011;9726;52.198;8.792;2024-03-23T11:17:19;14.53;;;1.47;;
19187;SDS011;9726;52.198;8.792;2024-03-23T11:19:57;3.90;;;1.13;;
19187;SDS011;9726;52.198;8.792;2024-03-23T11:27:43;6.57;;;2.07;;
19187;SDS011;9726;52.198;8.792;2024-03-23T11:30:14;11.00;;;2.47;;
19187;SDS011;9726;52.198;8.792;2024-03-23T11:32:45;12.10;;;2.20;;
19187;SDS011;9726;52.198;8.792;2024-03-23T11:35:31;5.93;;;1.80;;
19187;SDS011;9726;52.198;8.792;2024-03-23T11:40:31;15.70;;;2.30;;
19187;SDS011;9726;52.198;8.792;2024-03-23T11:42:59;8.90;;;2.57;;
19187;SDS011;9726;52.198;8.792;2024-03-23T11:45:27;23.07;;;3.60;;
19187;SDS011;9726;52.198;8.792;2024-03-23T11:48:07;6.57;;;2.20;;
19187;SDS011;9726;52.198;8.792;2024-03-23T11:50:42;6.33;;;2.80;;
19187;SDS011;9726;52.198;8.792;2024-03-23T11:53:13;16.53;;;3.47;;
19187;SDS011;9726;52.198;8.792;2024-03-23T11:58:19;12.23;;;3.40;;
19187;SDS011;9726;52.198;8.792;2024-03-23T12:00:54;9.23;;;2.67;;
19187;SDS011;9726;52.198;8.792;2024-03-23T12:03:29;10.00;;;3.07;;
19187;SDS011;9726;52.198;8.792;2024-03-23T12:05:58;7.07;;;2.67;;
19187;SDS011;9726;52.198;8.792;2024-03-23T12:11:16;9.90;;;2.67;;
19187;SDS011;9726;52.198;8.792;2024-03-23T12:13:43;12.20;;;3.20;;
19187;SDS011;9726;52.198;8.792;2024-03-23T12:16:18;12.63;;;4.37;;
19187;SDS011;9726;52.198;8.792;2024-03-23T12:18:46;10.80;;;3.80;;
19187;SDS011;9726;52.198;8.792;2024-03-23T12:21:13;10.57;;;2.73;;
19187;SDS011;9726;52.198;8.792;2024-03-23T12:23:40;8.40;;;2.90;;
19187;SDS011;9726;52.198;8.792;2024-03-23T12:26:07;4.53;;;2.40;;
19187;SDS011;9726;52.198;8.792;2024-03-23T12:28:34;7.03;;;2.63;;
19187;SDS011;9726;52.198;8.792;2024-03-23T12:31:00;4.90;;;2.30;;
19187;SDS011;9726;52.198;8.792;2024-03-23T12:33:26;8.90;;;2.10;;
19187;SDS011;9726;52.198;8.792;2024-03-23T12:35:52;10.37;;;2.53;;
19187;SDS011;9726;52.198;8.792;2024-03-23T12:38:19;4.97;;;2.73;;
19187;SDS011;9726;52.198;8.792;2024-03-23T12:40:49;11.37;;;2.63;;
19187;SDS011;9726;52.198;8.792;2024-03-23T12:43:16;5.90;;;2.33;;
19187;SDS011;9726;52.198;8.792;2024-03-23T12:45:46;8.47;;;2.63;;
19187;SDS011;9726;52.198;8.792;2024-03-23T12:48:15;6.50;;;2.43;;
19187;SDS011;9726;52.198;8.792;2024-03-23T12:50:42;13.53;;;2.87;;
19187;SDS011;9726;52.198;8.792;2024-03-23T12:53:08;6.00;;;2.30;;
19187;SDS011;9726;52.198;8.792;2024-03-23T12:55:34;11.60;;;2.73;;
19187;SDS011;9726;52.198;8.792;2024-03-23T12:58:01;16.40;;;3.33;;
19187;SDS011;9726;52.198;8.792;2024-03-23T13:00:27;8.33;;;2.70;;
19187;SDS011;9726;52.198;8.792;2024-03-23T13:02:53;12.70;;;3.93;;
19187;SDS011;9726;52.198;8.792;2024-03-23T13:05:19;7.67;;;2.73;;
19187;SDS011;9726;52.198;8.792;2024-03-23T13:07:45;9.00;;;3.00;;
19187;SDS011;9726;52.198;8.792;2024-03-23T13:10:12;9.73;;;4.23;;
19187;SDS011;9726;52.198;8.792;2024-03-23T13:12:39;9.63;;;2.97;;
19187;SDS011;9726;52.198;8.792;2024-03-23T13:15:06;11.97;;;2.60;;
19187;SDS011;9726;52.198;8.792;2024-03-23T13:17:32;10.47;;;2.40;;
19187;SDS011;9726;52.198;8.792;2024-03-23T13:19:59;9.57;;;3.23;;
19187;SDS011;9726;52.198;8.792;2024-03-23T13:22:25;4.40;;;3.10;;
19187;SDS011;9726;52.198;8.792;2024-03-23T13:24:51;9.73;;;2.13;;
19187;SDS011;9726;52.198;8.792;2024-03-23T13:27:17;4.53;;;1.77;;
19187;SDS011;9726;52.198;8.792;2024-03-23T13:29:44;4.10;;;1.67;;
19187;SDS011;9726;52.198;8.792;2024-03-23T13:32:12;4.28;;;1.65;;
19187;SDS011;9726;52.198;8.792;2024-03-23T13:34:39;2.20;;;1.70;;
19187;SDS011;9726;52.198;8.792;2024-03-23T13:37:05;5.33;;;1.30;;
19187;SDS011;9726;52.198;8.792;2024-03-23T13:39:32;3.77;;;1.63;;
19187;SDS011;9726;52.198;8.792;2024-03-23T13:41:59;3.60;;;2.10;;
19187;SDS011;9726;52.198;8.792;2024-03-23T13:44:25;6.18;;;1.73;;
19187;SDS011;9726;52.198;8.792;2024-03-23T13:46:51;5.57;;;1.27;;
19187;SDS011;9726;52.198;8.792;2024-03-23T13:49:24;4.63;;;1.80;;
19187;SDS011;9726;52.198;8.792;2024-03-23T13:51:55;6.07;;;2.10;;
19187;SDS011;9726;52.198;8.792;2024-03-23T13:54:26;7.40;;;1.97;;
19187;SDS011;9726;52.198;8.792;2024-03-23T13:56:56;1.87;;;1.53;;
19187;SDS011;9726;52.198;8.792;2024-03-23T13:59:22;5.00;;;1.63;;
19187;SDS011;9726;52.198;8.792;2024-03-23T14:01:49;2.23;;;1.53;;
19187;SDS011;9726;52.198;8.792;2024-03-23T14:04:17;9.30;;;2.07;;
19187;SDS011;9726;52.198;8.792;2024-03-23T14:06:44;2.67;;;1.50;;
19187;SDS011;9726;52.198;8.792;2024-03-23T14:09:11;7.77;;;2.23;;
19187;SDS011;9726;52.198;8.792;2024-03-23T14:11:38;4.93;;;1.73;;
19187;SDS011;9726;52.198;8.792;2024-03-23T14:14:06;5.57;;;2.27;;
19187;SDS011;9726;52.198;8.792;2024-03-23T14:16:32;5.20;;;2.03;;
19187;SDS011;9726;52.198;8.792;2024-03-23T14:18:59;7.63;;;2.03;;
19187;SDS011;9726;52.198;8.792;2024-03-23T14:21:25;8.33;;;2.90;;
19187;SDS011;9726;52.198;8.792;2024-03-23T14:23:51;8.97;;;2.30;;
19187;SDS011;9726;52.198;8.792;2024-03-23T14:26:19;2.77;;;1.70;;
19187;SDS011;9726;52.198;8.792;2024-03-23T14:28:45;6.30;;;1.90;;
19187;SDS011;9726;52.198;8.792;2024-03-23T14:31:12;7.83;;;1.83;;
19187;SDS011;9726;52.198;8.792;2024-03-23T14:33:39;6.40;;;1.90;;
19187;SDS011;9726;52.198;8.792;2024-03-23T14:36:16;7.87;;;1.97;;
19187;SDS011;9726;52.198;8.792;2024-03-23T14:38:47;5.87;;;1.93;;
19187;SDS011;9726;52.198;8.792;2024-03-23T14:41:13;4.23;;;2.00;;
19187;SDS011;9726;52.198;8.792;2024-03-23T14:43:40;12.13;;;2.50;;
19187;SDS011;9726;52.198;8.792;2024-03-23T14:48:35;6.33;;;1.87;;
19187;SDS011;9726;52.198;8.792;2024-03-23T14:51:02;11.07;;;2.70;;
19187;SDS011;9726;52.198;8.792;2024-03-23T14:53:33;9.13;;;2.43;;
19187;SDS011;9726;52.198;8.792;2024-03-23T14:55:59;7.73;;;2.33;;
19187;SDS011;9726;52.198;8.792;2024-03-23T14:58:27;6.50;;;3.00;;
19187;SDS011;9726;52.198;8.792;2024-03-23T15:01:01;7.13;;;2.10;;
19187;SDS011;9726;52.198;8.792;2024-03-23T15:03:27;7.77;;;2.60;;
19187;SDS011;9726;52.198;8.792;2024-03-23T15:08:24;9.13;;;1.83;;
19187;SDS011;9726;52.198;8.792;2024-03-23T15:10:50;12.50;;;2.33;;
19187;SDS011;9726;52.198;8.792;2024-03-23T15:13:17;5.47;;;2.10;;
19187;SDS011;9726;52.198;8.792;2024-03-23T15:15:43;7.77;;;1.80;;
19187;SDS011;9726;52.198;8.792;2024-03-23T15:18:11;3.43;;;1.60;;
19187;SDS011;9726;52.198;8.792;2024-03-23T15:20:41;5.17;;;2.10;;
19187;SDS011;9726;52.198;8.792;2024-03-23T15:23:16;4.00;;;1.83;;
19187;SDS011;9726;52.198;8.792;2024-03-23T15:25:42;11.63;;;1.70;;
19187;SDS011;9726;52.198;8.792;2024-03-23T15:28:09;8.47;;;2.80;;
19187;SDS011;9726;52.198;8.792;2024-03-23T15:30:35;2.60;;;1.50;;
19187;SDS011;9726;52.198;8.792;2024-03-23T15:33:01;6.97;;;1.77;;
19187;SDS011;9726;52.198;8.792;2024-03-23T15:35:28;5.97;;;1.93;;
19187;SDS011;9726;52.198;8.792;2024-03-23T15:37:54;4.23;;;2.10;;
19187;SDS011;9726;52.198;8.792;2024-03-23T15:40:20;13.23;;;2.43;;
19187;SDS011;9726;52.198;8.792;2024-03-23T15:42:46;12.93;;;2.00;;
19187;SDS011;9726;52.198;8.792;2024-03-23T15:45:12;6.23;;;1.90;;
19187;SDS011;9726;52.198;8.792;2024-03-23T15:47:39;3.57;;;1.63;;
19187;SDS011;9726;52.198;8.792;2024-03-23T15:50:05;13.30;;;2.00;;
19187;SDS011;9726;52.198;8.792;2024-03-23T15:52:34;4.97;;;1.97;;
19187;SDS011;9726;52.198;8.792;2024-03-23T15:55:04;11.43;;;2.17;;
19187;SDS011;9726;52.198;8.792;2024-03-23T15:57:34;8.93;;;2.50;;
19187;SDS011;9726;52.198;8.792;2024-03-23T16:00:02;9.33;;;2.87;;
19187;SDS011;9726;52.198;8.792;2024-03-23T16:02:37;6.83;;;2.10;;
19187;SDS011;9726;52.198;8.792;2024-03-23T16:05:06;9.67;;;2.87;;
19187;SDS011;9726;52.198;8.792;2024-03-23T16:07:36;5.37;;;1.87;;
19187;SDS011;9726;52.198;8.792;2024-03-23T16:10:05;5.53;;;2.30;;
19187;SDS011;9726;52.198;8.792;2024-03-23T16:12:34;5.27;;;2.27;;